Byron, NE (68325)

1:56 PM CDT on July 22, 2014 (GMT -0500)
Hebron Municipal (KHJH) Elev 1467 ft | 40.15 °N, 97.59 °W | Change Station
Active Advisory: Heat Advisory

Current weather conditions updated 21 minutes ago

Clear
Clear
92 °F
Feels Like 100 °F
N
8
Wind Variable Wind from North

Today is forecast to be Cooler than yesterday.

Today
High -- | Low -- °F
--% Chance of Precip.
Yesterday
High -- | Low -- °F
Precip. -- in
6:20 AM 8:54 PM
Waning Crescent, 15% visible
Pressure 30.05 in
Visibility 10.0 miles
Clouds Clear
Heat Index 100 °F
Dew Point 72 °F
Humidity 51%
Rainfall 0.00 in
Snow Depth Not available.
UV 12 out of 12
Pollen 6.00 out of 12
Air Quality Not available.
Flu Activity Sporadic
METAR KHJH 221835Z AUTO 35007KT 10SM CLR 34/22 A3005 RMK AO2 T03350221

More Conditions Fewer Conditions

Pressure 30.05 in
Visibility 10.0 miles
Clouds Clear
Heat Index 100 °F
Dew Point 72 °F
Humidity 51%
Rainfall 0.00 in
Snow Depth Not available.
UV 12 out of 12
Pollen 6.00 out of 12
Air Quality Not available.
Flu Activity Sporadic
METAR KHJH 221835Z AUTO 35007KT 10SM CLR 34/22 A3005 RMK AO2 T03350221

More Conditions Fewer Conditions

10-Day Weather Forecast

Almanac

Astronomy

Jul. 22, 2014 Rise Set
Actual Time 6:20 AM CDT 8:54 PM CDT
Civil Twilight 5:49 AM CDT 9:25 PM CDT
Nautical Twilight 5:10 AM CDT 10:04 PM CDT
Astronomical Twilight 4:26 AM CDT 10:47 PM CDT
Moon 2:54 AM CDT 5:33 PM CDT
Length of Visible Light 15h 36m
Length of Day
14h 33m
Tomorrow will be 1m 41s shorter.
Waning Crescent, 15% of the Moon is Illuminated
Today
Waning Crescent
Jul 26
New
Aug 3
First Quarter
Aug 10
Full
Aug 17
Last Quarter

Today's Extremes

State Highs State Lows

Community

WunderPhotos

Upload Photos

1,736,322 photos uploaded!

Nearby

Snow Depth

Station Depth Elevation
No new snow has been reported.

Earthquake Activity

City Distance Mag. Time & Date
No recent earthquake activity has been reported nearby.
Minimum magnitude displayed is 2.5.

Coastal Water Temperatures

Place Temperature
No Stations Reporting

Nearby Weather Stations

Station Location Temp. Heat Index Dew Point Humidity Wind Precip. Elev Updated Type
2 S of Pawnee, Courtland, KS 99.3 °F 106 °F 69 °F 38% SSE  at  4.0 mph 0.00 in / hr 1565 ft 1:56 PM CDT Rapid Fire
North Superior, Superior, NE 95.1 °F 100 °F 68 °F 41% SSW  at  4.0 mph 0.00 in / hr 1617 ft 1:56 PM CDT Rapid Fire
MesoWest SEDAN1 , Ong, NE 83 °F 81 °F - - North  at  - 0.00 in / hr 1685 ft 1:00 PM CDT MADIS
MesoWest ALEXR1 , Alexandria, NE 97 °F 92 °F - - North  at  - 0.00 in / hr 1397 ft 1:00 PM CDT MADIS

Show More Stations Show Fewer Stations